• Join FlightAware (Why Join?)
  • Login
  • US Flag 
02:11AM EDT


 

Airport Tracker/Info


-or-


 

Live Flight TrackerFlight Track Log ✈ CCA1888 ✈ 05-May-2012 ✈ ZSJD / JDZ - ZBAA / PEK

Flight Track Log - Related Links

Times and Time Zones

All times are in EDT time to prevent confusion due to time zone crossing. See the CCA1888 flight status page for this flight to view local times or setup timezone preferences in your user account.

Time Position Orientation Groundspeed Altitude Reporting Facility
EDT Latitude Longitude Course Direction KTS MPH feet Rate Location/Type
07:45AM 29.3932 117.1732 358° North  Level Estimated
07:46AM 29.4956 117.1682 358° North  Level Estimated
07:47AM 29.5979 117.1632 358° North  Level Estimated
07:48AM 29.7003 117.1582 358° North  Level Estimated
07:49AM 29.8026 117.1532 358° North  Level Estimated
07:50AM 29.9049 117.1482 358° North  Level Estimated
07:51AM 30.0073 117.1431 358° North  Level Estimated
07:52AM 30.1096 117.1381 358° North  Level Estimated
07:53AM 30.2120 117.1330 358° North  Level Estimated
07:54AM 30.3144 117.1280 358° North  Level Estimated
07:55AM 30.4167 117.1229 358° North  Level Estimated
07:56AM 30.5191 117.1178 358° North  Level Estimated
07:57AM 30.6214 117.1127 358° North  Level Estimated
07:58AM 30.7237 117.1076 358° North  Level Estimated
07:59AM 30.8261 117.1025 358° North  Level Estimated
08:00AM 30.9284 117.0973 358° North  Level Estimated
08:01AM 31.0308 117.0922 358° North  Level Estimated
08:02AM 31.1332 117.0871 358° North  Level Estimated
08:03AM 31.2355 117.0819 358° North  Level Estimated
08:04AM 31.3379 117.0767 358° North  Level Estimated
08:05AM 31.4402 117.0715 358° North  Level Estimated
08:06AM 31.5425 117.0663 358° North  Level Estimated
08:07AM 31.6449 117.0611 358° North  Level Estimated
08:08AM 31.7472 117.0559 358° North  Level Estimated
08:09AM 31.8496 117.0507 358° North  Level Estimated
08:10AM 31.9520 117.0454 358° North  Level Estimated
08:11AM 32.0543 117.0402 358° North  Level Estimated
08:12AM 32.1566 117.0349 358° North  Level Estimated
08:13AM 32.2590 117.0296 357° North  Level Estimated
08:14AM 32.3613 117.0243 357° North  Level Estimated
08:15AM 32.4637 117.0190 357° North  Level Estimated
08:16AM 32.5660 117.0137 357° North  Level Estimated
08:17AM 32.6684 117.0084 357° North  Level Estimated
08:18AM 32.7707 117.0030 357° North  Level Estimated
08:19AM 32.8730 116.9977 357° North  Level Estimated
08:20AM 32.9754 116.9923 357° North  Level Estimated
08:21AM 33.0777 116.9869 357° North  Level Estimated
08:22AM 33.1801 116.9816 357° North  Level Estimated
08:23AM 33.2824 116.9762 357° North  Level Estimated
08:24AM 33.3847 116.9707 357° North  Level Estimated
08:25AM 33.4871 116.9653 357° North  Level Estimated
08:26AM 33.5894 116.9599 357° North  Level Estimated
08:27AM 33.6918 116.9544 357° North  Level Estimated
08:28AM 33.7941 116.9490 357° North  Level Estimated
08:29AM 33.8964 116.9435 357° North  Level Estimated
08:30AM 33.9988 116.9380 357° North  Level Estimated
08:31AM 34.1011 116.9325 357° North  Level Estimated
08:32AM 34.2035 116.9270 357° North  Level Estimated
08:33AM 34.3058 116.9214 357° North  Level Estimated
08:34AM 34.4081 116.9159 357° North  Level Estimated
08:35AM 34.5105 116.9103 357° North  Level Estimated
08:36AM 34.6128 116.9048 357° North  Level Estimated
08:37AM 34.7152 116.8992 357° North  Level Estimated
08:38AM 34.8175 116.8936 357° North  Level Estimated
08:39AM 34.9198 116.8879 357° North  Level Estimated
08:40AM 35.0222 116.8823 357° North  Level Estimated
08:41AM 35.1245 116.8767 357° North  Level Estimated
08:42AM 35.2269 116.8710 357° North  Level Estimated
08:43AM 35.3292 116.8653 357° North  Level Estimated
08:44AM 35.4315 116.8597 357° North  Level Estimated
08:45AM 35.5339 116.8540 357° North  Level Estimated
08:46AM 35.6362 116.8482 357° North  Level Estimated
08:47AM 35.7386 116.8425 357° North  Level Estimated
08:48AM 35.8409 116.8368 357° North  Level Estimated
08:49AM 35.9432 116.8310 357° North  Level Estimated
08:50AM 36.0456 116.8252 357° North  Level Estimated
08:51AM 36.1479 116.8194 357° North  Level Estimated
08:52AM 36.2503 116.8136 357° North  Level Estimated
08:53AM 36.3526 116.8078 357° North  Level Estimated
08:54AM 36.4549 116.8020 357° North  Level Estimated
08:55AM 36.5573 116.7961 357° North  Level Estimated
08:56AM 36.6596 116.7903 357° North  Level Estimated
08:57AM 36.7619 116.7844 357° North  Level Estimated
08:58AM 36.8643 116.7785 357° North  Level Estimated
08:59AM 36.9666 116.7726 357° North  Level Estimated
09:00AM 37.0689 116.7667 357° North  Level Estimated
09:01AM 37.1713 116.7607 357° North  Level Estimated
09:02AM 37.2736 116.7548 357° North  Level Estimated
09:03AM 37.3759 116.7488 357° North  Level Estimated
09:04AM 37.4782 116.7428 357° North  Level Estimated
09:05AM 37.5806 116.7368 357° North  Level Estimated
09:06AM 37.6829 116.7308 357° North  Level Estimated
09:07AM 37.7852 116.7247 357° North  Level Estimated
09:08AM 37.8876 116.7187 357° North  Level Estimated
09:09AM 37.9899 116.7126 357° North  Level Estimated
09:10AM 38.0922 116.7065 357° North  Level Estimated
09:11AM 38.1946 116.7004 357° North  Level Estimated
09:12AM 38.2969 116.6942 357° North  Level Estimated
09:13AM 38.3992 116.6881 357° North  Level Estimated
09:14AM 38.5015 116.6819 357° North  Level Estimated
09:15AM 38.6039 116.6757 357° North  Level Estimated
09:16AM 38.7062 116.6695 357° North  Level Estimated
09:17AM 38.8085 116.6633 357° North  Level Estimated
09:18AM 38.9109 116.6571 357° North  Level Estimated
09:19AM 39.0132 116.6508 357° North  Level Estimated
09:20AM 39.1155 116.6446 357° North  Level Estimated
09:21AM 39.2179 116.6383 357° North  Level Estimated
09:22AM 39.3202 116.6320 357° North  Level Estimated
09:23AM 39.4225 116.6257 357° North  Level Estimated
09:24AM 39.5248 116.6193 357° North  Level Estimated
09:25AM 39.6272 116.6130 357° North  Level Estimated
09:26AM 39.7295 116.6066 357° North  Level Estimated
09:27AM 39.8318 116.6002 357° North  Level Estimated
09:28AM 39.9342 116.5938 357° North  Level Estimated
09:29AM 40.0365 116.5873 357° North  Level Estimated
09:30AM 40.1388 116.5808 177° South  Level Estimated
09:31AM 40.0365 116.5873 357° North  Level Estimated
09:32AM 40.1388 116.5808 177° South  Level Estimated
09:33AM 40.0365 116.5873 357° North  Level Estimated
09:34AM 40.1388 116.5808 357° North  Level Estimated